Time;durP1;ratioP1;P1;durP2;ratioP2;P2;SDS_P1;SDS_P2;PMS_P1;PMS_P2;Temp;Humidity;BMP_temperature;BMP_pressure;BME280_temperature;BME280_humidity;BME280_pressure;Samples;Min_cycle;Max_cycle;Signal;HPM_P1;HPM_P2
2022/08/23 00:01:05;;;;;;;0.00;0.00;;;23.00;70.80;;;;;;5010910;28;20038;-61
2022/08/23 00:03:32;;;;;;;1.73;0.65;;;23.00;70.90;;;;;;5010974;28;20022;-61
2022/08/23 00:05:57;;;;;;;0.22;0.22;;;22.90;71.10;;;;;;5009721;28;20054;-61
2022/08/23 00:08:23;;;;;;;0.05;0.00;;;22.90;71.40;;;;;;5010892;28;20111;-61
2022/08/23 00:10:49;;;;;;;0.30;0.28;;;22.90;71.60;;;;;;5009620;28;20088;-61
2022/08/23 00:13:16;;;;;;;0.20;0.13;;;22.80;71.60;;;;;;5025731;28;20038;-61
2022/08/23 00:15:41;;;;;;;0.10;0.10;;;22.80;71.80;;;;;;5010757;28;20096;-61
2022/08/23 00:18:07;;;;;;;0.00;0.00;;;22.80;71.70;;;;;;5010836;28;20070;-61
2022/08/23 00:20:33;;;;;;;0.00;0.00;;;22.70;71.90;;;;;;5009448;28;20526;-61
2022/08/23 00:22:59;;;;;;;0.10;0.10;;;22.70;72.00;;;;;;5010676;28;20176;-61
2022/08/23 00:25:25;;;;;;;0.65;0.30;;;22.70;72.20;;;;;;5012496;28;20700;-61
2022/08/23 00:27:51;;;;;;;0.17;0.05;;;22.60;72.20;;;;;;5029826;28;20029;-61
2022/08/23 00:30:17;;;;;;;0.38;0.20;;;22.60;72.40;;;;;;5014397;28;20390;-61
2022/08/23 00:32:44;;;;;;;0.10;0.10;;;22.60;72.40;;;;;;5014078;28;20061;-61
2022/08/23 00:35:12;;;;;;;0.00;0.00;;;22.50;72.60;;;;;;5014630;28;20407;-61
2022/08/23 00:37:38;;;;;;;81.90;1.45;;;22.40;72.80;;;;;;5029303;28;20563;-61
2022/08/23 00:40:11;;;;;;;0.55;0.25;;;22.40;73.10;;;;;;5029372;28;20065;-61
2022/08/23 00:48:49;;;;;;;0.20;0.20;;;22.20;73.80;;;;;;5026289;28;20410;-61
2022/08/23 00:51:24;;;;;;;0.15;0.15;;;22.10;74.10;;;;;;5029073;28;20060;-61
2022/08/23 00:53:57;;;;;;;0.22;0.22;;;22.10;74.40;;;;;;5014069;28;20022;-61
2022/08/23 00:56:25;;;;;;;0.15;0.15;;;22.10;74.50;;;;;;5029115;28;20030;-61
2022/08/23 00:58:52;;;;;;;0.03;0.03;;;22.10;74.60;;;;;;5013797;28;20034;-61
2022/08/23 01:01:18;;;;;;;0.20;0.20;;;22.00;74.70;;;;;;5013731;28;20121;-61
2022/08/23 01:03:53;;;;;;;0.17;0.17;;;22.00;75.10;;;;;;5013529;28;20394;-62
2022/08/23 01:06:33;;;;;;;0.32;0.25;;;21.90;75.00;;;;;;5025372;28;20025;-62
2022/08/23 01:09:06;;;;;;;0.60;0.47;;;22.00;75.10;;;;;;5031957;28;20026;-61
2022/08/23 01:11:47;;;;;;;0.45;0.45;;;21.90;75.20;;;;;;5031755;28;20570;-61
2022/08/23 01:14:39;;;;;;;0.00;0.00;;;21.90;75.20;;;;;;5032162;28;20076;-61
2022/08/23 01:17:13;;;;;;;0.20;0.20;;;21.90;75.30;;;;;;4996866;28;20571;-61
2022/08/23 01:19:51;;;;;;;0.00;0.00;;;21.90;75.30;;;;;;5012206;28;20096;-61
2022/08/23 01:22:37;;;;;;;0.30;0.30;;;21.90;75.50;;;;;;5013163;28;20030;-61
2022/08/23 01:25:07;;;;;;;0.08;0.08;;;21.90;75.50;;;;;;5021845;28;20029;-61
2022/08/23 01:27:34;;;;;;;2.08;0.95;;;21.90;75.60;;;;;;5031741;28;20034;-61
2022/08/23 01:30:00;;;;;;;0.00;0.00;;;21.90;75.60;;;;;;5031768;28;20037;-61
2022/08/23 01:32:28;;;;;;;0.00;0.00;;;21.90;75.80;;;;;;5031074;28;20448;-61
2022/08/23 01:34:54;;;;;;;2.72;0.85;;;21.80;75.90;;;;;;5031475;28;20026;-61
2022/08/23 01:37:20;;;;;;;0.08;0.03;;;21.80;75.90;;;;;;5031374;28;20544;-61
2022/08/23 01:39:46;;;;;;;0.00;0.00;;;21.80;76.00;;;;;;5031429;28;20029;-61
2022/08/23 01:42:12;;;;;;;0.00;0.00;;;21.80;76.00;;;;;;5032462;28;20389;-61
2022/08/23 01:44:37;;;;;;;0.00;0.00;;;21.80;76.10;;;;;;5031625;28;20025;-61
2022/08/23 01:47:04;;;;;;;1.15;0.40;;;21.80;76.30;;;;;;5032554;28;20477;-61
2022/08/23 01:49:33;;;;;;;0.00;0.00;;;21.80;76.40;;;;;;5032311;28;20034;-62
2022/08/23 01:51:59;;;;;;;0.00;0.00;;;21.70;76.50;;;;;;5030751;28;20044;-61
2022/08/23 01:54:24;;;;;;;0.13;0.13;;;21.70;76.80;;;;;;5031272;28;20033;-61
2022/08/23 01:56:50;;;;;;;0.00;0.00;;;21.70;77.00;;;;;;5032375;28;20080;-61
2022/08/23 01:59:16;;;;;;;0.38;0.10;;;21.70;76.90;;;;;;5030899;28;20030;-61
2022/08/23 02:01:42;;;;;;;12.20;0.40;;;21.70;77.00;;;;;;5031125;28;20033;-61
2022/08/23 02:04:08;;;;;;;0.20;0.20;;;21.70;77.10;;;;;;5030852;28;20029;-61
2022/08/23 02:06:34;;;;;;;0.93;0.35;;;21.70;77.00;;;;;;5032456;28;20041;-61
2022/08/23 02:09:00;;;;;;;0.00;0.00;;;21.70;76.90;;;;;;5047530;28;20064;-61
2022/08/23 02:13:58;;;;;;;0.03;0.03;;;21.60;77.00;;;;;;5050038;28;20045;-63
2022/08/23 02:16:32;;;;;;;1.55;1.00;;;21.60;77.20;;;;;;5051720;28;20049;-63
2022/08/23 02:19:01;;;;;;;0.28;0.10;;;21.50;77.50;;;;;;5033887;28;20385;-63
2022/08/23 02:21:31;;;;;;;0.10;0.03;;;21.40;78.10;;;;;;5034309;28;20116;-63
2022/08/23 02:24:01;;;;;;;0.30;0.20;;;21.40;78.20;;;;;;5034423;28;20025;-63
2022/08/23 02:26:27;;;;;;;0.17;0.17;;;21.50;78.40;;;;;;5033994;28;20025;-63
2022/08/23 02:28:53;;;;;;;0.25;0.20;;;21.40;78.40;;;;;;5051683;28;20033;-63
2022/08/23 02:31:20;;;;;;;0.90;0.70;;;21.40;78.50;;;;;;5051745;28;20112;-63
2022/08/23 02:33:47;;;;;;;0.10;0.10;;;21.40;78.50;;;;;;5051105;28;20036;-63
2022/08/23 02:36:13;;;;;;;0.13;0.13;;;21.40;78.70;;;;;;5051816;28;20490;-63
2022/08/23 02:38:39;;;;;;;0.08;0.00;;;21.50;78.80;;;;;;5050463;28;20036;-63
2022/08/23 02:41:06;;;;;;;0.00;0.00;;;21.50;79.00;;;;;;5033506;28;20029;-63
2022/08/23 02:43:32;;;;;;;0.03;0.03;;;21.50;79.10;;;;;;5050882;28;20494;-63
2022/08/23 02:45:58;;;;;;;0.55;0.55;;;21.50;79.20;;;;;;5033707;28;20052;-63
2022/08/23 02:48:25;;;;;;;0.60;0.60;;;21.40;79.70;;;;;;5033231;28;20063;-63
2022/08/23 02:50:51;;;;;;;0.28;0.28;;;21.40;79.50;;;;;;5051368;28;20055;-63
2022/08/23 02:53:17;;;;;;;9.57;0.45;;;21.40;79.90;;;;;;5051150;28;20420;-63
2022/08/23 02:55:46;;;;;;;1.23;0.63;;;21.40;80.10;;;;;;5051066;28;20058;-63
2022/08/23 02:58:12;;;;;;;0.13;0.13;;;21.40;80.20;;;;;;5033319;28;20040;-63
2022/08/23 03:00:38;;;;;;;0.00;0.00;;;21.30;80.30;;;;;;5050959;28;20017;-63
2022/08/23 03:03:04;;;;;;;1.55;1.13;;;21.30;80.40;;;;;;5041067;28;20036;-62
2022/08/23 03:05:31;;;;;;;0.00;0.00;;;21.10;80.80;;;;;;5036253;28;20018;-63
2022/08/23 03:07:57;;;;;;;1.27;0.73;;;21.00;81.10;;;;;;5029041;28;20430;-63
2022/08/23 03:10:23;;;;;;;0.43;0.30;;;21.10;81.70;;;;;;5049453;28;20147;-63
2022/08/23 03:12:49;;;;;;;0.20;0.20;;;21.10;81.70;;;;;;5030719;28;20124;-63
2022/08/23 03:15:15;;;;;;;0.15;0.15;;;21.10;82.00;;;;;;5039038;28;20389;-63
2022/08/23 03:17:40;;;;;;;0.10;0.03;;;21.30;81.70;;;;;;5050603;28;20068;-63
2022/08/23 03:20:08;;;;;;;0.00;0.00;;;21.50;81.00;;;;;;5039768;28;20060;-63
2022/08/23 03:22:34;;;;;;;0.65;0.65;;;21.60;80.30;;;;;;5013162;28;20147;-63
2022/08/23 03:25:00;;;;;;;0.40;0.30;;;21.70;80.00;;;;;;5030838;28;20034;-63
2022/08/23 03:27:26;;;;;;;0.05;0.03;;;21.70;79.60;;;;;;5030948;28;20033;-63
2022/08/23 03:29:52;;;;;;;0.47;0.20;;;21.70;79.70;;;;;;5030564;28;20487;-63
2022/08/23 03:32:18;;;;;;;0.00;0.00;;;21.70;80.00;;;;;;5030672;28;20064;-63
2022/08/23 03:34:43;;;;;;;0.00;0.00;;;21.60;79.90;;;;;;4996518;28;20404;-63
2022/08/23 03:37:09;;;;;;;0.20;0.10;;;21.60;79.50;;;;;;5041580;28;20516;-63
2022/08/23 03:39:35;;;;;;;1.88;0.73;;;21.70;79.70;;;;;;5050342;28;20029;-63
2022/08/23 03:42:01;;;;;;;0.10;0.10;;;21.70;79.70;;;;;;5032756;28;20061;-63
2022/08/23 03:44:27;;;;;;;0.82;0.70;;;21.70;79.80;;;;;;5032506;28;20476;-63
2022/08/23 03:46:53;;;;;;;0.80;0.65;;;21.70;79.70;;;;;;5050661;28;20033;-63
2022/08/23 03:49:18;;;;;;;0.40;0.40;;;21.60;79.70;;;;;;5050524;28;20033;-63
2022/08/23 03:51:45;;;;;;;1.65;0.20;;;21.50;79.90;;;;;;5050283;28;20036;-63
2022/08/23 03:54:10;;;;;;;0.10;0.10;;;21.40;80.40;;;;;;5032207;28;20432;-63
2022/08/23 03:56:51;;;;;;;0.10;0.10;;;21.30;80.70;;;;;;5050185;28;20037;-63
2022/08/23 03:59:17;;;;;;;0.60;0.60;;;21.30;81.20;;;;;;5033831;28;20037;-63
2022/08/23 04:01:43;;;;;;;0.63;0.47;;;21.10;81.70;;;;;;5054570;28;20036;-63
2022/08/23 04:04:09;;;;;;;0.15;0.10;;;21.00;82.10;;;;;;5053847;28;20086;-63
2022/08/23 04:06:35;;;;;;;0.40;0.40;;;20.90;82.10;;;;;;5054393;28;20109;-63
2022/08/23 04:09:02;;;;;;;0.10;0.10;;;20.90;82.80;;;;;;5053956;28;20068;-63
2022/08/23 04:11:28;;;;;;;1.85;0.75;;;20.80;82.90;;;;;;5041939;28;20033;-64
2022/08/23 04:13:53;;;;;;;0.40;0.40;;;20.80;83.60;;;;;;4957917;28;20044;-64
2022/08/23 04:16:19;;;;;;;4.65;1.27;;;20.70;83.60;;;;;;4999058;28;20092;-63
2022/08/23 04:18:46;;;;;;;2.15;1.42;;;20.50;83.80;;;;;;5014537;28;20041;-70
2022/08/23 04:21:18;;;;;;;0.00;0.00;;;20.40;84.50;;;;;;4996284;28;20486;-71
2022/08/23 04:23:44;;;;;;;0.25;0.25;;;20.40;85.20;;;;;;4998082;28;20026;-69
2022/08/23 04:26:10;;;;;;;0.00;0.00;;;20.20;85.60;;;;;;5013784;28;20545;-69
2022/08/23 04:28:36;;;;;;;0.80;0.15;;;20.20;86.10;;;;;;5000401;28;20113;-69
2022/08/23 04:31:03;;;;;;;0.17;0.13;;;20.10;86.60;;;;;;5022561;28;20037;-69
2022/08/23 04:33:31;;;;;;;0.10;0.10;;;20.00;87.30;;;;;;5023309;28;20084;-69
2022/08/23 04:35:59;;;;;;;3.13;0.88;;;19.90;87.60;;;;;;5004704;28;20058;-68
2022/08/23 04:38:25;;;;;;;0.52;0.52;;;19.80;88.00;;;;;;5030560;28;20437;-69
2022/08/23 04:43:37;;;;;;;0.10;0.10;;;19.70;89.10;;;;;;5032418;28;20100;-68
2022/08/23 04:46:04;;;;;;;0.55;0.55;;;19.80;89.70;;;;;;5032904;28;20043;-68
2022/08/23 04:48:30;;;;;;;0.00;0.00;;;19.90;89.90;;;;;;5033477;28;20080;-68
2022/08/23 04:50:56;;;;;;;0.30;0.30;;;19.90;89.90;;;;;;5031581;28;20025;-68
2022/08/23 04:53:22;;;;;;;6.15;0.63;;;19.90;89.60;;;;;;5032799;28;20035;-68
2022/08/23 04:55:50;;;;;;;0.13;0.13;;;19.90;89.70;;;;;;5033257;28;20060;-68
2022/08/23 04:58:17;;;;;;;0.00;0.00;;;20.00;90.00;;;;;;5015633;28;20025;-68
2022/08/23 05:00:43;;;;;;;0.13;0.13;;;20.00;90.10;;;;;;5033088;28;20033;-68
2022/08/23 05:03:09;;;;;;;2.30;1.40;;;19.90;90.20;;;;;;5032703;28;20048;-68
2022/08/23 05:05:35;;;;;;;0.63;0.63;;;19.90;90.30;;;;;;5033143;28;20040;-69
2022/08/23 05:08:00;;;;;;;2.45;0.55;;;19.90;90.50;;;;;;5005135;28;20022;-69
2022/08/23 05:10:27;;;;;;;0.22;0.22;;;19.70;90.80;;;;;;5001116;28;20030;-68
2022/08/23 05:12:53;;;;;;;0.00;0.00;;;19.70;91.00;;;;;;5012459;28;20065;-67
2022/08/23 05:15:19;;;;;;;0.82;0.80;;;19.70;91.20;;;;;;5002389;28;20291;-65
2022/08/23 05:17:45;;;;;;;0.30;0.30;;;19.70;91.40;;;;;;4992971;28;20553;-67
2022/08/23 05:20:11;;;;;;;1.30;0.95;;;19.80;91.60;;;;;;4994021;28;20022;-66
2022/08/23 05:22:39;;;;;;;0.38;0.35;;;19.70;91.70;;;;;;5022202;28;20037;-67
2022/08/23 05:25:06;;;;;;;0.25;0.25;;;19.80;91.90;;;;;;5025844;28;20029;-66
2022/08/23 05:27:32;;;;;;;0.00;0.00;;;19.80;92.00;;;;;;5032191;28;20401;-68
2022/08/23 05:29:58;;;;;;;0.75;0.75;;;19.70;92.10;;;;;;5032200;28;20085;-68
2022/08/23 05:32:24;;;;;;;0.88;0.77;;;19.80;92.20;;;;;;5030813;28;20033;-69
2022/08/23 05:34:50;;;;;;;2.38;1.08;;;19.80;92.30;;;;;;5032025;28;20044;-68
2022/08/23 05:37:16;;;;;;;0.80;0.68;;;19.80;92.40;;;;;;5032008;28;20385;-69
2022/08/23 05:39:42;;;;;;;5.20;1.77;;;19.80;92.50;;;;;;5014318;28;20033;-68
2022/08/23 05:42:13;;;;;;;8.73;5.00;;;19.80;92.80;;;;;;5031786;28;20029;-66
2022/08/23 05:44:38;;;;;;;1.33;1.23;;;19.80;93.00;;;;;;5030906;28;20779;-67
2022/08/23 05:47:07;;;;;;;18.05;8.25;;;19.90;93.10;;;;;;5021775;28;20084;-67
2022/08/23 05:49:35;;;;;;;5.40;3.25;;;20.00;93.50;;;;;;5021064;28;20080;-67
2022/08/23 05:52:04;;;;;;;1.30;1.20;;;20.10;93.50;;;;;;5021419;28;20040;-67
2022/08/23 05:54:29;;;;;;;0.43;0.35;;;20.10;92.70;;;;;;5031130;28;20072;-67
2022/08/23 05:56:55;;;;;;;10.38;2.03;;;20.20;92.80;;;;;;5030569;28;20438;-68
2022/08/23 05:59:21;;;;;;;2.33;0.77;;;20.30;92.90;;;;;;5031476;28;20728;-67
2022/08/23 06:01:47;;;;;;;3.03;0.77;;;20.40;92.90;;;;;;5021041;28;20030;-68
2022/08/23 06:04:13;;;;;;;0.85;0.73;;;20.40;92.50;;;;;;5011318;28;20026;-68
2022/08/23 06:06:40;;;;;;;1.80;1.27;;;20.50;92.60;;;;;;5011268;28;20026;-67
2022/08/23 06:09:11;;;;;;;0.90;0.80;;;20.70;92.40;;;;;;4994585;28;20061;-67
2022/08/23 06:11:37;;;;;;;2.63;1.10;;;20.70;92.40;;;;;;5024905;28;20029;-67
2022/08/23 06:14:06;;;;;;;0.80;0.80;;;20.80;92.10;;;;;;5031640;28;20079;-67
2022/08/23 06:16:37;;;;;;;3.40;0.30;;;20.80;92.10;;;;;;5030281;28;20056;-68
2022/08/23 06:19:05;;;;;;;0.25;0.20;;;20.90;92.80;;;;;;5013533;28;20034;-67
2022/08/23 06:21:32;;;;;;;0.30;0.28;;;20.90;91.80;;;;;;5015922;28;20037;-67
2022/08/23 06:23:58;;;;;;;0.55;0.40;;;20.80;91.50;;;;;;5016457;28;20041;-67
2022/08/23 06:26:36;;;;;;;13.73;4.10;;;20.90;91.50;;;;;;5013667;28;20101;-67
2022/08/23 06:29:07;;;;;;;6.75;1.15;;;20.90;91.60;;;;;;5009984;28;20398;-67
2022/08/23 06:31:46;;;;;;;0.17;0.10;;;20.90;91.50;;;;;;5011431;28;20048;-67
2022/08/23 06:34:34;;;;;;;1.13;0.95;;;20.90;91.80;;;;;;5011039;28;20092;-66
2022/08/23 06:37:05;;;;;;;0.05;0.05;;;21.00;92.00;;;;;;5011140;28;20441;-67
2022/08/23 06:39:31;;;;;;;;;;;21.10;91.90;;;;;;5023528;28;20037;-67
2022/08/23 06:42:18;;;;;;;0.70;0.57;;;21.20;91.70;;;;;;5013500;28;20000;-67
2022/08/23 06:44:44;;;;;;;1.02;0.90;;;21.20;91.60;;;;;;5028150;28;20043;-67
2022/08/23 06:47:10;;;;;;;0.47;0.40;;;21.30;91.50;;;;;;5030998;28;20041;-67
2022/08/23 06:49:35;;;;;;;1.55;0.35;;;21.40;91.40;;;;;;5030734;28;20045;-67
2022/08/23 06:52:05;;;;;;;0.55;0.30;;;21.50;91.30;;;;;;5030817;28;20030;-67
2022/08/23 06:54:34;;;;;;;2.13;0.85;;;21.50;91.30;;;;;;5030986;28;20021;-67
2022/08/23 06:57:01;;;;;;;0.22;0.22;;;21.50;91.10;;;;;;5030993;28;20029;-67
2022/08/23 06:59:27;;;;;;;0.60;0.50;;;21.50;91.30;;;;;;5030866;28;20085;-67
2022/08/23 07:02:00;;;;;;;0.00;0.00;;;21.60;91.40;;;;;;5013388;28;20029;-67
2022/08/23 07:04:33;;;;;;;3.53;2.30;;;21.70;90.90;;;;;;5030870;28;20036;-67
2022/08/23 07:07:02;;;;;;;6.85;1.60;;;21.80;90.70;;;;;;5013032;28;20389;-67
2022/08/23 07:09:30;;;;;;;0.65;0.40;;;21.90;90.50;;;;;;5030680;28;20100;-67
2022/08/23 07:11:57;;;;;;;0.28;0.20;;;21.90;89.70;;;;;;5030385;28;20025;-67
2022/08/23 07:14:23;;;;;;;0.00;0.00;;;22.00;88.70;;;;;;5029352;28;20500;-68
2022/08/23 07:16:53;;;;;;;0.00;0.00;;;22.10;88.50;;;;;;5030663;28;20060;-67
2022/08/23 07:19:23;;;;;;;0.40;0.20;;;22.20;88.20;;;;;;5030472;28;20037;-67
2022/08/23 07:21:50;;;;;;;0.00;0.00;;;22.20;88.70;;;;;;5030772;28;20025;-67
2022/08/23 07:24:16;;;;;;;0.20;0.20;;;22.40;87.70;;;;;;5029123;28;20077;-67
2022/08/23 07:26:44;;;;;;;0.08;0.08;;;22.40;87.80;;;;;;4996862;28;20022;-67
2022/08/23 07:29:11;;;;;;;0.68;0.60;;;22.60;87.30;;;;;;5030378;28;20030;-68
2022/08/23 07:31:44;;;;;;;2.17;0.88;;;22.70;86.90;;;;;;5030280;28;20502;-68
2022/08/23 07:34:11;;;;;;;0.30;0.22;;;22.70;85.80;;;;;;5030201;28;20566;-67
2022/08/23 07:36:40;;;;;;;0.03;0.03;;;22.90;85.50;;;;;;5012669;28;20038;-67
2022/08/23 07:39:07;;;;;;;0.22;0.20;;;22.90;85.10;;;;;;5030057;28;20029;-68
2022/08/23 07:41:34;;;;;;;16.33;0.60;;;23.00;84.80;;;;;;5012766;28;20065;-69
2022/08/23 07:44:02;;;;;;;0.00;0.00;;;23.10;84.40;;;;;;5012494;28;20033;-68
2022/08/23 07:46:30;;;;;;;0.20;0.10;;;23.00;83.90;;;;;;5012936;28;20026;-69
2022/08/23 07:48:58;;;;;;;0.00;0.00;;;23.10;84.70;;;;;;5029996;28;20034;-69
2022/08/23 07:51:24;;;;;;;0.00;0.00;;;23.20;84.10;;;;;;5012634;28;20113;-69
2022/08/23 07:53:50;;;;;;;2.72;0.80;;;23.30;83.50;;;;;;5029964;28;20030;-69
2022/08/23 07:56:19;;;;;;;0.10;0.03;;;23.40;82.90;;;;;;5030198;28;20683;-69
2022/08/23 07:58:45;;;;;;;3.53;0.52;;;23.50;82.90;;;;;;5012273;28;20733;-70
2022/08/23 08:01:18;;;;;;;0.10;0.10;;;23.60;82.80;;;;;;5030254;28;20033;-69
2022/08/23 08:03:47;;;;;;;0.15;0.15;;;23.60;82.80;;;;;;5030039;28;20033;-69
2022/08/23 08:06:17;;;;;;;11.18;0.30;;;23.70;82.10;;;;;;5029775;28;20036;-69
2022/08/23 08:08:44;;;;;;;0.47;0.47;;;23.80;82.50;;;;;;5012497;28;20043;-69
2022/08/23 08:11:13;;;;;;;0.00;0.00;;;23.80;81.90;;;;;;5012275;28;20291;-69
2022/08/23 08:13:41;;;;;;;0.63;0.43;;;23.90;81.90;;;;;;5042674;22;20065;-70
2022/08/23 08:16:09;;;;;;;1.75;0.68;;;23.90;81.90;;;;;;5012364;28;20040;-69
2022/08/23 08:18:36;;;;;;;0.40;0.38;;;24.10;81.80;;;;;;5029381;28;20095;-69
2022/08/23 08:21:04;;;;;;;0.00;0.00;;;24.20;81.60;;;;;;5012256;28;20036;-69
2022/08/23 08:23:30;;;;;;;1.27;1.13;;;24.20;81.20;;;;;;5014424;28;20030;-69
2022/08/23 08:26:05;;;;;;;0.10;0.10;;;24.30;80.80;;;;;;5010117;28;20662;-69
2022/08/23 08:28:33;;;;;;;0.45;0.40;;;24.30;80.80;;;;;;5010145;28;20034;-69
2022/08/23 08:30:58;;;;;;;0.20;0.20;;;24.40;80.60;;;;;;5009856;28;20064;-69
2022/08/23 08:33:25;;;;;;;0.17;0.17;;;24.30;80.90;;;;;;5009641;28;20069;-69
2022/08/23 08:35:52;;;;;;;0.35;0.25;;;24.40;81.40;;;;;;5008623;28;20493;-69
2022/08/23 08:38:18;;;;;;;0.55;0.25;;;24.60;81.10;;;;;;5009692;28;20394;-69
2022/08/23 08:40:44;;;;;;;0.28;0.20;;;24.70;80.20;;;;;;4992550;28;20026;-69
2022/08/23 08:43:16;;;;;;;1.08;0.15;;;24.70;80.30;;;;;;4992201;28;20054;-69
2022/08/23 08:46:18;;;;;;;0.25;0.20;;;25.00;80.80;;;;;;4993455;28;20037;-69
2022/08/23 08:48:51;;;;;;;0.28;0.25;;;25.00;80.10;;;;;;4996943;28;20120;-69
2022/08/23 08:51:48;;;;;;;0.10;0.10;;;25.10;79.60;;;;;;5032289;28;20396;-69
2022/08/23 08:54:21;;;;;;;0.40;0.35;;;25.10;79.80;;;;;;5031773;28;20033;-69
2022/08/23 08:56:53;;;;;;;0.00;0.00;;;25.20;79.80;;;;;;5033317;28;20029;-69
2022/08/23 08:59:41;;;;;;;1.88;0.75;;;25.30;80.20;;;;;;5031723;28;20034;-69
2022/08/23 09:02:15;;;;;;;2.80;1.48;;;25.40;78.80;;;;;;5031968;28;20025;-69
2022/08/23 09:04:41;;;;;;;0.00;0.00;;;25.40;79.40;;;;;;5031939;28;20041;-69
2022/08/23 09:07:18;;;;;;;0.10;0.10;;;25.50;79.30;;;;;;5032976;28;20025;-70
2022/08/23 09:10:28;;;;;;;1.20;0.25;;;25.70;78.80;;;;;;5031488;28;20034;-69
2022/08/23 09:13:25;;;;;;;0.25;0.20;;;25.80;78.60;;;;;;4993157;28;20521;-69
2022/08/23 09:16:30;;;;;;;3.83;0.98;;;26.00;78.30;;;;;;5024337;28;20065;-69
2022/08/23 09:18:56;;;;;;;0.30;0.20;;;26.30;78.70;;;;;;5031406;28;20029;-69
2022/08/23 09:21:23;;;;;;;0.22;0.22;;;26.20;77.60;;;;;;5028305;28;20030;-69
2022/08/23 09:23:50;;;;;;;2.63;0.65;;;26.30;77.50;;;;;;5031076;28;20025;-69
2022/08/23 09:26:16;;;;;;;0.75;0.45;;;26.50;77.10;;;;;;5025081;28;20029;-69
2022/08/23 09:28:44;;;;;;;0.63;0.63;;;26.80;77.20;;;;;;5032556;28;20041;-69
2022/08/23 09:31:11;;;;;;;0.22;0.20;;;26.90;76.70;;;;;;5030768;28;20108;-70
2022/08/23 09:33:46;;;;;;;0.10;0.10;;;26.90;76.30;;;;;;5012525;28;20060;-70
2022/08/23 09:36:25;;;;;;;0.50;0.43;;;27.00;76.00;;;;;;5012916;28;20397;-69
2022/08/23 09:39:23;;;;;;;0.15;0.15;;;26.80;75.60;;;;;;5011063;28;20026;-70
2022/08/23 09:41:50;;;;;;;0.00;0.00;;;26.80;75.70;;;;;;5012574;28;20106;-70
2022/08/23 09:44:39;;;;;;;0.75;0.38;;;26.90;76.10;;;;;;4994933;28;20112;-68
2022/08/23 09:47:14;;;;;;;0.25;0.17;;;26.90;75.70;;;;;;5011548;28;20650;-68
2022/08/23 09:49:42;;;;;;;0.25;0.25;;;26.90;76.20;;;;;;5025528;28;20098;-68
2022/08/23 09:52:26;;;;;;;0.10;0.10;;;26.90;75.70;;;;;;5030869;28;20037;-69
2022/08/23 09:55:02;;;;;;;2.20;1.13;;;27.10;75.30;;;;;;5030598;28;20068;-68
2022/08/23 09:57:32;;;;;;;0.35;0.35;;;27.40;75.30;;;;;;5030880;28;20029;-69
2022/08/23 10:00:14;;;;;;;;;;;27.60;75.40;;;;;;5030969;28;20042;-69
2022/08/23 10:02:40;;;;;;;28.83;1.65;;;27.80;75.10;;;;;;5031828;28;19979;-69
2022/08/23 10:05:35;;;;;;;1.38;0.63;;;28.00;75.60;;;;;;5031872;28;20553;-69
2022/08/23 10:08:03;;;;;;;1.20;0.85;;;28.20;74.00;;;;;;5030732;28;20069;-68
2022/08/23 10:10:48;;;;;;;0.10;0.10;;;28.20;73.00;;;;;;5013907;28;20036;-69
2022/08/23 10:13:14;;;;;;;1.65;0.93;;;28.30;73.20;;;;;;5030139;28;20444;-69
2022/08/23 10:15:48;;;;;;;0.38;0.30;;;28.10;73.00;;;;;;5030483;28;20037;-69
2022/08/23 10:18:27;;;;;;;0.63;0.50;;;28.40;72.90;;;;;;5031621;28;20144;-69
2022/08/23 10:21:02;;;;;;;0.05;0.00;;;28.60;71.90;;;;;;5031444;28;20030;-69
2022/08/23 10:23:36;;;;;;;1.00;0.80;;;28.60;71.90;;;;;;5022653;28;20022;-69
2022/08/23 10:26:02;;;;;;;0.00;0.00;;;28.80;71.50;;;;;;5011573;28;20052;-70
2022/08/23 10:31:57;;;;;;;0.30;0.20;;;28.90;71.10;;;;;;4991090;28;20387;-66
2022/08/23 10:34:50;;;;;;;0.40;0.32;;;28.90;71.50;;;;;;4975280;28;20030;-67
2022/08/23 10:38:10;;;;;;;0.00;0.00;;;29.30;69.80;;;;;;4992018;28;20038;-66
2022/08/23 10:40:56;;;;;;;3.78;0.70;;;29.40;68.80;;;;;;4991585;28;20394;-66
2022/08/23 10:43:43;;;;;;;0.13;0.05;;;29.40;68.80;;;;;;4991712;28;20026;-66
2022/08/23 10:46:10;;;;;;;0.63;0.52;;;29.70;68.80;;;;;;4991955;28;20042;-66
2022/08/23 10:49:00;;;;;;;0.63;0.57;;;29.80;68.20;;;;;;5002977;28;20030;-66
2022/08/23 10:51:33;;;;;;;0.20;0.20;;;29.40;68.10;;;;;;5031081;28;20029;-66
2022/08/23 10:54:22;;;;;;;0.57;0.30;;;29.70;68.00;;;;;;5029578;28;20033;-66
2022/08/23 10:56:50;;;;;;;0.10;0.10;;;29.80;67.30;;;;;;5029812;28;20037;-66
2022/08/23 10:59:24;;;;;;;0.30;0.30;;;30.00;66.80;;;;;;5029627;28;20389;-66
2022/08/23 11:02:03;;;;;;;0.00;0.00;;;30.00;66.40;;;;;;5029490;28;20609;-66
2022/08/23 11:04:33;;;;;;;0.08;0.05;;;30.20;66.90;;;;;;5030839;28;20033;-66
2022/08/23 11:07:25;;;;;;;0.10;0.10;;;30.10;66.60;;;;;;5029295;28;20599;-66
2022/08/23 11:10:15;;;;;;;0.00;0.00;;;30.40;66.30;;;;;;5029099;28;20405;-66
2022/08/23 11:12:54;;;;;;;0.13;0.10;;;30.40;65.00;;;;;;4990716;28;20049;-66
2022/08/23 11:15:37;;;;;;;1.65;1.10;;;30.50;64.70;;;;;;4991129;28;20402;-66
2022/08/23 11:18:07;;;;;;;0.10;0.10;;;30.80;64.90;;;;;;4993657;28;20045;-66
2022/08/23 11:20:48;;;;;;;0.70;0.70;;;30.70;64.60;;;;;;5012788;28;20183;-66
2022/08/23 11:23:56;;;;;;;0.30;0.30;;;30.70;64.20;;;;;;5030203;28;20037;-66
2022/08/23 11:26:25;;;;;;;0.10;0.00;;;31.00;64.10;;;;;;5030331;28;20040;-66
2022/08/23 11:29:19;;;;;;;0.95;0.40;;;31.30;64.20;;;;;;5012807;28;20033;-66
2022/08/23 11:32:39;;;;;;;0.10;0.10;;;31.20;62.90;;;;;;5030236;28;20036;-66
2022/08/23 11:35:31;;;;;;;0.40;0.40;;;31.20;62.70;;;;;;4953185;28;20034;-66
2022/08/23 11:38:01;;;;;;;1.13;0.98;;;31.50;62.40;;;;;;5030282;28;20033;-66
2022/08/23 11:40:54;;;;;;;0.47;0.20;;;31.10;63.10;;;;;;5029052;28;20052;-66
2022/08/23 11:43:32;;;;;;;2.05;0.47;;;31.50;62.50;;;;;;5030070;28;20073;-66
2022/08/23 11:46:23;;;;;;;0.00;0.00;;;31.30;62.10;;;;;;5029244;28;20108;-66
2022/08/23 11:49:00;;;;;;;0.00;0.00;;;31.70;62.30;;;;;;5022657;28;20038;-66
2022/08/23 11:51:51;;;;;;;0.52;0.52;;;32.10;61.10;;;;;;5010551;28;20038;-66
2022/08/23 11:54:48;;;;;;;0.10;0.00;;;31.80;60.50;;;;;;5010214;28;20033;-66
2022/08/23 11:58:14;;;;;;;0.10;0.10;;;32.00;60.10;;;;;;5010277;28;20030;-66
2022/08/23 12:01:10;;;;;;;0.00;0.00;;;32.00;60.00;;;;;;4986844;28;20100;-66
2022/08/23 12:04:12;;;;;;;0.20;0.17;;;32.40;59.90;;;;;;4992473;28;20100;-66
2022/08/23 12:06:48;;;;;;;0.00;0.00;;;32.60;60.10;;;;;;5011205;28;20042;-66
2022/08/23 12:09:35;;;;;;;0.93;0.13;;;33.00;60.40;;;;;;5029386;28;20030;-66
2022/08/23 12:12:01;;;;;;;0.30;0.10;;;33.60;59.40;;;;;;5029689;28;20646;-67
2022/08/23 12:14:29;;;;;;;0.90;0.60;;;33.50;58.50;;;;;;5029948;28;20037;-66
2022/08/23 12:17:15;;;;;;;0.85;0.55;;;32.50;57.80;;;;;;5030032;28;20040;-66
2022/08/23 12:19:57;;;;;;;0.10;0.10;;;32.70;58.10;;;;;;5013275;28;20041;-66
2022/08/23 12:22:33;;;;;;;0.22;0.22;;;33.30;57.90;;;;;;5012364;28;20018;-66
2022/08/23 12:25:06;;;;;;;0.13;0.08;;;33.50;56.80;;;;;;5013902;28;20045;-66
2022/08/23 12:27:38;;;;;;;2.33;0.30;;;33.70;56.40;;;;;;5013877;28;20022;-66
2022/08/23 12:30:24;;;;;;;5.18;0.20;;;33.50;56.30;;;;;;5013913;28;20038;-66
2022/08/23 12:33:34;;;;;;;0.35;0.20;;;33.50;56.00;;;;;;4998124;28;20037;-66
2022/08/23 12:36:40;;;;;;;0.52;0.47;;;33.50;57.60;;;;;;5013989;28;20046;-65
2022/08/23 12:39:33;;;;;;;7.57;1.38;;;33.10;56.80;;;;;;4998864;28;20106;-66
2022/08/23 12:42:23;;;;;;;0.20;0.10;;;33.10;57.80;;;;;;5005261;28;20054;-66
2022/08/23 12:45:16;;;;;;;3.03;0.85;;;33.70;56.90;;;;;;4977331;28;20042;-66
2022/08/23 12:47:54;;;;;;;0.57;0.55;;;33.50;57.00;;;;;;5013845;28;20045;-66
2022/08/23 12:50:50;;;;;;;0.20;0.20;;;33.10;56.60;;;;;;4952322;28;20034;-66
2022/08/23 12:53:34;;;;;;;0.10;0.10;;;33.30;56.50;;;;;;4993636;28;20034;-66
2022/08/23 12:56:25;;;;;;;0.15;0.10;;;33.10;55.70;;;;;;4993889;28;20109;-66
2022/08/23 12:58:57;;;;;;;1.17;0.38;;;33.50;56.30;;;;;;4976640;28;20558;-66
2022/08/23 13:01:28;;;;;;;0.63;0.63;;;33.40;55.70;;;;;;4993851;28;20030;-66
2022/08/23 13:04:14;;;;;;;0.77;0.65;;;33.00;56.60;;;;;;4976500;28;20372;-66
2022/08/23 13:06:43;;;;;;;0.30;0.22;;;33.00;57.40;;;;;;4976591;28;20022;-66
2022/08/23 13:09:27;;;;;;;17.08;0.85;;;33.50;57.00;;;;;;4993674;28;20149;-66
2022/08/23 13:11:56;;;;;;;0.00;0.00;;;33.40;56.10;;;;;;5007418;28;20033;-66
2022/08/23 13:14:33;;;;;;;0.10;0.00;;;34.40;55.50;;;;;;5031663;28;20064;-67
2022/08/23 13:17:21;;;;;;;0.22;0.22;;;34.10;54.80;;;;;;5032771;28;20573;-67
2022/08/23 13:19:51;;;;;;;0.05;0.05;;;35.00;54.50;;;;;;5032731;28;20129;-67
2022/08/23 13:22:18;;;;;;;0.10;0.10;;;34.90;54.70;;;;;;5031619;28;20033;-67
2022/08/23 13:25:03;;;;;;;3.10;0.88;;;34.60;55.00;;;;;;5032857;28;20021;-66
2022/08/23 13:27:56;;;;;;;1.33;0.38;;;35.20;55.10;;;;;;5032787;28;20060;-67
2022/08/23 13:30:28;;;;;;;0.00;0.00;;;35.50;53.60;;;;;;5032066;28;20534;-66